Battle Creek, MI (49017)

11:26 AM EDT on May 05, 2015 (GMT -0400)
Wattles Park | | Change Station
CLOSE
Current Station
Personal Weather Station
Location: Battle Creek, MI
Elevation: 903 ft
Nearby Weather Stations

Elev 903 ft 42.32 °N, 85.11 °W | Updated 11 seconds ago

Rain
Rain
48.4 °F
Feels Like 48 °F
N
1.0
Wind Variable Wind from ENE
Gusts 4.0 mph

Today
High -- | Low -- °F
--% Chance of Precip.
Yesterday
High -- | Low -- °F
Precip. -- in
6:31 AM 8:44 PM
Full, 98% visible
Pressure 30.27 in
Visibility 9.0 miles
Clouds Mostly Cloudy 1600 ft
Mostly Cloudy 2500 ft
Overcast 9000 ft
Windchill 48 °F
Dew Point 46 °F
Humidity 92%
Rainfall 0.38 in
Snow Depth Not available.
UV 2 out of 12
Pollen 7.90 out of 12
Air Quality Not available.
Flu Activity Regional
METAR KBTL 051453Z 08014KT 9SM -RA BKN016 BKN025 OVC090 10/08 A3026 RMK AO2 SLP248 P0007 60023 T01000083 50000

More Conditions Fewer Conditions

Pressure 30.27 in
Visibility 9.0 miles
Clouds Mostly Cloudy 1600 ft
Mostly Cloudy 2500 ft
Overcast 9000 ft
Windchill 48 °F
Dew Point 46 °F
Humidity 92%
Rainfall 0.38 in
Snow Depth Not available.
UV 2 out of 12
Pollen 7.90 out of 12
Air Quality Not available.
Flu Activity Regional
METAR KBTL 051453Z 08014KT 9SM -RA BKN016 BKN025 OVC090 10/08 A3026 RMK AO2 SLP248 P0007 60023 T01000083 50000

More Conditions Fewer Conditions

10-Day Weather Forecast

Almanac

Astronomy

May. 05, 2015 Rise Set
Actual Time
Civil Twilight
Nautical Twilight
Astronomical Twilight
Moon
Length of Visible Light
Length of Day
Tomorrow will be .
, % of the Moon is Illuminated

Today's Extremes

State Highs State Lows

Community

WunderPhotos

Upload Photos

1,818,917 photos uploaded!

WunderBlogs® & News

Nearby

Air Quality

  Air Quality AQ Index Pollutant
Not available.

Snow Depth

Station Depth Elevation

Earthquake Activity

City Distance Mag. Time & Date
Minimum magnitude displayed is 2.5.

Coastal Water Temperatures

Place Temperature

Stations

Nearby Weather Stations

Station Location Temp. Windchill Dew Point Humidity Wind Precip. Elev Updated Type